Time;durP1;ratioP1;P1;durP2;ratioP2;P2;SDS_P1;SDS_P2;PMS_P1;PMS_P2;Temp;Humidity;BMP_temperature;BMP_pressure;BME280_temperature;BME280_humidity;BME280_pressure;Samples;Min_cycle;Max_cycle;Signal;HPM_P1;HPM_P2
2022/08/29 00:02:10;;;;;;;;;15.25;11.25;;;;;27.05;100.00;101591.63;5040767;28;51348;-57
2022/08/29 00:04:55;;;;;;;;;14.50;13.50;;;;;27.02;100.00;101581.75;5038120;28;51146;-57
2022/08/29 00:07:39;;;;;;;;;17.75;12.75;;;;;27.06;100.00;101586.09;5039790;28;51315;-57
2022/08/29 00:10:25;;;;;;;;;20.25;15.00;;;;;27.05;100.00;101581.59;5040300;28;51489;-57
2022/08/29 00:13:10;;;;;;;;;15.25;13.00;;;;;27.03;100.00;101590.84;5038702;28;51220;-57
2022/08/29 00:15:54;;;;;;;;;11.75;9.00;;;;;26.97;100.00;101574.81;5038034;28;51342;-57
2022/08/29 00:18:39;;;;;;;;;16.50;13.25;;;;;26.99;100.00;101568.28;5039036;28;51159;-57
2022/08/29 00:21:23;;;;;;;;;15.00;14.50;;;;;26.99;100.00;101565.56;5040243;28;51148;-57
2022/08/29 00:24:08;;;;;;;;;19.00;12.00;;;;;27.00;100.00;101558.25;5036918;28;51236;-57
2022/08/29 00:26:53;;;;;;;;;14.00;12.25;;;;;26.95;100.00;101558.53;5021460;28;51505;-57
2022/08/29 00:29:37;;;;;;;;;26.00;14.50;;;;;27.01;100.00;101554.56;5039935;28;51002;-56
2022/08/29 00:32:21;;;;;;;;;21.00;14.00;;;;;27.01;100.00;101552.69;5039897;28;51111;-56
2022/08/29 00:35:13;;;;;;;;;16.75;15.25;;;;;27.00;100.00;101552.78;5039276;28;53136;-57
2022/08/29 00:37:58;;;;;;;;;20.50;13.25;;;;;26.97;100.00;101542.94;5039032;28;51181;-57
2022/08/29 00:40:51;;;;;;;;;18.50;13.00;;;;;26.96;100.00;101540.28;5038976;28;51235;-57
2022/08/29 00:43:36;;;;;;;;;14.25;13.50;;;;;26.94;100.00;101542.22;5037809;28;51083;-57
2022/08/29 00:46:46;;;;;;;;;21.00;15.75;;;;;26.94;100.00;101539.50;5040668;28;51052;-57
2022/08/29 00:49:44;;;;;;;;;17.00;14.25;;;;;26.94;100.00;101536.75;5039196;28;51364;-57
2022/08/29 00:52:32;;;;;;;;;14.25;14.25;;;;;26.96;100.00;101534.81;5039241;28;51492;-58
2022/08/29 00:55:21;;;;;;;;;19.75;14.50;;;;;26.97;100.00;101531.13;5036209;28;51224;-58
2022/08/29 00:58:10;;;;;;;;;16.75;13.25;;;;;26.95;100.00;101520.31;5034910;28;51297;-57
2022/08/29 01:00:55;;;;;;;;;15.25;12.25;;;;;26.93;100.00;101510.44;5035729;28;51523;-57
2022/08/29 01:03:40;;;;;;;;;19.25;15.75;;;;;26.87;100.00;101498.91;5036885;28;51532;-57
2022/08/29 01:06:25;;;;;;;;;16.00;12.00;;;;;26.91;100.00;101505.97;5038810;28;51129;-57
2022/08/29 01:09:11;;;;;;;;;15.75;12.75;;;;;26.91;100.00;101505.06;5039532;28;51207;-56
2022/08/29 01:15:04;;;;;;;;;20.50;12.75;;;;;26.81;100.00;101485.66;5036956;28;51524;-57
2022/08/29 01:17:48;;;;;;;;;18.75;14.25;;;;;26.88;100.00;101494.31;5039984;28;51152;-58
2022/08/29 01:20:35;;;;;;;;;15.00;12.50;;;;;26.87;100.00;101488.00;5038356;28;51316;-58
2022/08/29 01:23:32;;;;;;;;;16.75;11.00;;;;;26.87;100.00;101487.13;5039804;28;51170;-57
2022/08/29 01:26:17;;;;;;;;;15.75;13.00;;;;;26.85;100.00;101475.41;5039344;28;51324;-57
2022/08/29 01:29:01;;;;;;;;;14.00;13.00;;;;;26.86;100.00;101482.63;5038698;28;51215;-57
2022/08/29 01:31:48;;;;;;;;;15.50;13.75;;;;;26.84;100.00;101477.25;5039745;28;52344;-57
2022/08/29 01:34:32;;;;;;;;;17.25;12.75;;;;;26.85;100.00;101472.69;5039417;28;51179;-57
2022/08/29 01:37:18;;;;;;;;;12.75;9.25;;;;;26.84;100.00;101468.19;5039851;28;51149;-57
2022/08/29 01:40:03;;;;;;;;;16.75;12.25;;;;;26.83;100.00;101458.25;5038703;28;51104;-57
2022/08/29 01:42:48;;;;;;;;;15.00;12.25;;;;;26.83;100.00;101460.97;5039320;28;51344;-57
2022/08/29 01:45:33;;;;;;;;;11.50;9.25;;;;;26.78;100.00;101458.53;5038156;28;51184;-56
2022/08/29 01:48:18;;;;;;;;;19.75;12.25;;;;;26.75;100.00;101459.56;5039914;28;51198;-56
2022/08/29 01:51:03;;;;;;;;;17.00;11.75;;;;;26.74;100.00;101452.34;5041264;28;51407;-57
2022/08/29 01:53:48;;;;;;;;;13.50;12.25;;;;;26.68;100.00;101452.69;5042405;28;51324;-57
2022/08/29 01:56:35;;;;;;;;;12.50;10.75;;;;;26.71;100.00;101451.66;5043434;28;51464;-57
2022/08/29 01:59:25;;;;;;;;;18.75;13.00;;;;;26.70;100.00;101452.63;5043284;28;51212;-57
2022/08/29 02:02:22;;;;;;;;;16.50;13.25;;;;;26.70;100.00;101453.50;5043587;28;51350;-58
2022/08/29 02:05:08;;;;;;;;;14.00;12.00;;;;;26.68;100.00;101449.09;5041860;28;51525;-57
2022/08/29 02:07:53;;;;;;;;;12.50;11.25;;;;;26.67;100.00;101448.19;5043393;28;51469;-56
2022/08/29 02:10:38;;;;;;;;;16.25;11.75;;;;;26.67;100.00;101448.19;5043047;28;51115;-57
2022/08/29 02:13:23;;;;;;;;;15.00;12.00;;;;;26.67;100.00;101453.66;5043298;28;51117;-57
2022/08/29 02:16:08;;;;;;;;;20.00;14.25;;;;;26.68;100.00;101452.69;5043165;28;51060;-57
2022/08/29 02:18:53;;;;;;;;;17.75;14.50;;;;;26.69;100.00;101451.72;5042923;28;51189;-57
2022/08/29 02:21:38;;;;;;;;;15.50;12.00;;;;;26.71;100.00;101452.53;5042890;28;51151;-56
2022/08/29 02:24:22;;;;;;;;;16.50;12.25;;;;;26.72;100.00;101450.69;5042759;28;51187;-57
2022/08/29 02:27:08;;;;;;;;;19.50;14.50;;;;;26.74;100.00;101454.19;5042884;28;51262;-57
2022/08/29 02:29:52;;;;;;;;;15.75;13.75;;;;;26.73;100.00;101446.94;5042340;28;51460;-57
2022/08/29 02:32:36;;;;;;;;;21.25;13.50;;;;;26.75;100.00;101440.44;5042778;28;51418;-57
2022/08/29 02:35:21;;;;;;;;;14.75;13.75;;;;;26.76;100.00;101444.94;5042435;28;51171;-58
2022/08/29 02:38:06;;;;;;;;;11.75;11.25;;;;;26.71;100.00;101435.28;5043072;28;51088;-56
2022/08/29 02:40:50;;;;;;;;;6.50;6.50;;;;;26.72;100.00;101443.34;5042414;28;51121;-57
2022/08/29 02:43:35;;;;;;;;;15.75;8.50;;;;;26.69;100.00;101440.81;5042685;28;51161;-57
2022/08/29 02:46:20;;;;;;;;;16.50;11.50;;;;;26.67;100.00;101442.75;5042657;28;51167;-57
2022/08/29 02:49:04;;;;;;;;;11.75;10.75;;;;;26.66;100.00;101438.28;5037293;28;51196;-57
2022/08/29 02:51:49;;;;;;;;;18.75;14.75;;;;;26.64;100.00;101434.75;5042336;28;51064;-57
2022/08/29 02:54:34;;;;;;;;;15.75;11.50;;;;;26.66;100.00;101437.38;5042545;28;52711;-58
2022/08/29 02:57:19;;;;;;;;;16.75;13.50;;;;;26.60;100.00;101433.19;5042541;28;51320;-57
2022/08/29 03:00:09;;;;;;;;;14.50;12.25;;;;;26.62;100.00;101436.69;5042116;28;51101;-58
2022/08/29 03:02:55;;;;;;;;;19.00;14.25;;;;;26.59;100.00;101431.41;5041433;28;51045;-57
2022/08/29 03:05:40;;;;;;;;;19.50;12.75;;;;;26.53;100.00;101429.06;5042142;28;51550;-57
2022/08/29 03:08:24;;;;;;;;;14.50;11.75;;;;;26.51;100.00;101433.75;5041078;28;51210;-58
2022/08/29 03:11:09;;;;;;;;;12.75;10.50;;;;;26.49;100.00;101427.50;5042065;28;51447;-57
2022/08/29 03:13:54;;;;;;;;;15.25;12.75;;;;;26.45;100.00;101427.69;5041869;28;51096;-57
2022/08/29 03:16:39;;;;;;;;;16.00;12.00;;;;;26.47;100.00;101434.88;5042065;28;51199;-57
2022/08/29 03:19:24;;;;;;;;;15.25;14.00;;;;;26.43;100.00;101423.28;5041499;28;51095;-58
2022/08/29 03:22:09;;;;;;;;;15.75;12.00;;;;;26.38;100.00;101423.56;5041519;28;51325;-58
2022/08/29 03:24:54;;;;;;;;;14.00;12.50;;;;;26.39;100.00;101430.78;5041450;28;51108;-57
2022/08/29 03:27:38;;;;;;;;;5.75;3.25;;;;;26.39;100.00;101436.22;5042004;28;51088;-57
2022/08/29 03:30:22;;;;;;;;;16.00;10.50;;;;;26.38;100.00;101437.19;5041475;28;51407;-57
2022/08/29 03:33:07;;;;;;;;;20.50;16.00;;;;;26.33;100.00;101428.41;5041526;28;51141;-57
2022/08/29 03:35:52;;;;;;;;;20.00;15.50;;;;;26.37;100.00;101440.88;5041371;28;51485;-56
2022/08/29 03:38:37;;;;;;;;;14.50;13.75;;;;;26.36;100.00;101441.00;5041489;28;51021;-57
2022/08/29 03:41:25;;;;;;;;;18.00;15.75;;;;;26.35;100.00;101439.22;5036870;28;51242;-57
2022/08/29 03:44:11;;;;;;;;;17.00;14.25;;;;;26.35;100.00;101444.69;5041333;28;51135;-57
2022/08/29 03:46:55;;;;;;;;;20.00;13.75;;;;;26.34;100.00;101437.47;5041465;28;51191;-57
2022/08/29 03:49:40;;;;;;;;;15.50;15.25;;;;;26.34;100.00;101432.91;5041280;28;51105;-57
2022/08/29 03:52:24;;;;;;;;;18.25;14.25;;;;;26.33;100.00;101428.41;5041390;28;51101;-57
2022/08/29 03:55:11;;;;;;;;;19.75;11.75;;;;;26.37;100.00;101434.56;5040938;28;51058;-57
2022/08/29 03:57:55;;;;;;;;;19.00;15.25;;;;;26.36;100.00;101439.13;5041172;28;51190;-57
2022/08/29 04:00:40;;;;;;;;;28.75;18.00;;;;;26.35;100.00;101440.09;5041138;28;51173;-56
2022/08/29 04:03:25;;;;;;;;;20.25;15.25;;;;;26.35;100.00;101445.56;5040970;28;51104;-57
2022/08/29 04:06:11;;;;;;;;;24.75;15.50;;;;;26.35;100.00;101441.97;5041010;28;51149;-57
2022/08/29 04:08:57;;;;;;;;;21.50;15.25;;;;;26.27;100.00;101436.94;5040814;28;51167;-57
2022/08/29 04:11:42;;;;;;;;;15.25;12.00;;;;;26.32;100.00;101453.03;5040586;28;51173;-57
2022/08/29 04:14:28;;;;;;;;;14.00;12.25;;;;;26.30;100.00;101461.34;5040355;28;51187;-58
2022/08/29 04:17:12;;;;;;;;;18.00;14.25;;;;;26.28;100.00;101453.25;5040851;28;51029;-58
2022/08/29 04:19:57;;;;;;;;;17.25;13.50;;;;;26.27;100.00;101453.31;5040628;28;51154;-57
2022/08/29 04:22:41;;;;;;;;;14.25;12.50;;;;;26.28;100.00;101463.25;5040763;28;51046;-57
2022/08/29 04:25:27;;;;;;;;;18.25;13.50;;;;;26.27;100.00;101456.94;5040474;28;51347;-58
2022/08/29 04:28:13;;;;;;;;;18.25;16.75;;;;;26.27;100.00;101458.78;5040627;28;51041;-58
2022/08/29 04:30:58;;;;;;;;;17.50;17.50;;;;;26.21;100.00;101457.28;5040660;28;51118;-56
2022/08/29 04:33:42;;;;;;;;;20.00;17.00;;;;;26.27;100.00;101456.03;5040541;28;51258;-57
2022/08/29 04:36:27;;;;;;;;;17.75;14.50;;;;;26.25;100.00;101449.78;5039749;28;51144;-58
2022/08/29 04:39:12;;;;;;;;;22.25;16.50;;;;;26.28;100.00;101458.72;5039984;28;51160;-58
2022/08/29 04:41:57;;;;;;;;;16.75;13.25;;;;;26.28;100.00;101458.72;5040685;28;51128;-57
2022/08/29 04:44:41;;;;;;;;;16.50;15.25;;;;;26.30;100.00;101458.59;5040179;28;51078;-57
2022/08/29 04:47:25;;;;;;;;;20.50;13.50;;;;;26.30;100.00;101459.47;5040271;28;51315;-58
2022/08/29 04:50:13;;;;;;;;;20.25;12.50;;;;;26.27;100.00;101461.50;5040392;28;51463;-58
2022/08/29 04:52:58;;;;;;;;;17.25;13.25;;;;;26.28;100.00;101458.72;5039889;28;51056;-58
2022/08/29 04:55:42;;;;;;;;;18.25;16.00;;;;;26.26;100.00;101455.19;5040432;28;51175;-58
2022/08/29 04:58:27;;;;;;;;;22.00;15.50;;;;;26.26;100.00;101457.00;5037894;28;51193;-57
2022/08/29 05:01:16;;;;;;;;;15.25;13.00;;;;;26.24;100.00;101464.44;5036336;28;51457;-58
2022/08/29 05:04:01;;;;;;;;;16.00;15.00;;;;;26.24;100.00;101468.03;5037437;28;53210;-57
2022/08/29 05:06:45;;;;;;;;;20.75;12.75;;;;;26.23;100.00;101470.84;5038610;28;51116;-57
2022/08/29 05:09:30;;;;;;;;;18.00;13.25;;;;;26.23;100.00;101471.72;5033729;28;51169;-57
2022/08/29 05:12:14;;;;;;;;;20.50;18.25;;;;;26.23;100.00;101476.31;5038392;28;52131;-58
2022/08/29 05:15:00;;;;;;;;;17.00;13.25;;;;;26.23;100.00;101481.75;5033838;28;51322;-56
2022/08/29 05:17:44;;;;;;;;;15.25;14.00;;;;;26.23;100.00;101476.31;5038047;28;51144;-57
2022/08/29 05:20:30;;;;;;;;;20.50;16.00;;;;;26.22;100.00;101485.47;5037429;28;51290;-57
2022/08/29 05:23:16;;;;;;;;;15.25;12.25;;;;;26.21;100.00;101490.00;5037012;28;51158;-57
2022/08/29 05:26:03;;;;;;;;;24.00;15.75;;;;;26.22;100.00;101490.91;5037943;28;51195;-57
2022/08/29 05:28:48;;;;;;;;;18.75;16.00;;;;;26.18;100.00;101492.94;5036367;28;51083;-57
2022/08/29 05:31:32;;;;;;;;;19.50;13.50;;;;;26.21;100.00;101494.59;5037761;28;51408;-57
2022/08/29 05:34:17;;;;;;;;;15.75;13.00;;;;;26.22;100.00;101504.56;5037088;28;51101;-57
2022/08/29 05:37:13;;;;;;;;;21.50;14.50;;;;;26.22;100.00;101508.16;5037875;28;51093;-57
2022/08/29 05:39:58;;;;;;;;;20.75;17.50;;;;;26.25;100.00;101521.63;5034403;28;51179;-57
2022/08/29 05:42:43;;;;;;;;;18.50;15.25;;;;;26.26;100.00;101517.94;5038007;28;51176;-57
2022/08/29 05:45:27;;;;;;;;;22.25;15.75;;;;;26.29;100.00;101525.94;5037101;28;51259;-57
2022/08/29 05:48:13;;;;;;;;;22.50;18.75;;;;;26.32;100.00;101527.59;5036909;28;51223;-58
2022/08/29 05:50:58;;;;;;;;;22.50;17.25;;;;;26.32;100.00;101522.16;5037376;28;51223;-56
2022/08/29 05:53:44;;;;;;;;;26.75;20.00;;;;;26.38;100.00;101529.09;5037965;28;51079;-58
2022/08/29 05:56:29;;;;;;;;;15.50;13.25;;;;;26.40;100.00;101529.91;5036191;28;51069;-58
2022/08/29 05:59:16;;;;;;;;;19.75;15.50;;;;;26.41;100.00;101523.44;5037065;28;51263;-58
2022/08/29 06:02:00;;;;;;;;;22.75;15.25;;;;;26.43;100.00;101527.88;5038974;28;51190;-58
2022/08/29 06:04:45;;;;;;;;;18.75;14.75;;;;;26.45;100.00;101530.50;5039290;28;51493;-58
2022/08/29 06:07:31;;;;;;;;;24.75;18.25;;;;;26.48;100.00;101533.03;5038994;28;51113;-58
2022/08/29 06:10:16;;;;;;;;;26.25;17.25;;;;;26.49;100.00;101534.81;5037484;28;51483;-58
2022/08/29 06:13:00;;;;;;;;;23.25;17.50;;;;;26.52;100.00;101529.16;5037147;28;51156;-58
2022/08/29 06:15:45;;;;;;;;;25.25;16.50;;;;;26.55;100.00;101536.31;5036270;28;51275;-57
2022/08/29 06:18:29;;;;;;;;;16.75;16.00;;;;;26.58;100.00;101542.47;5035975;28;51254;-57
2022/08/29 06:21:15;;;;;;;;;29.25;20.25;;;;;26.61;100.00;101547.72;5039026;28;51164;-58
2022/08/29 06:23:59;;;;;;;;;23.25;18.50;;;;;26.67;100.00;101551.94;5037687;28;51506;-57
2022/08/29 06:26:44;;;;;;;;;30.50;20.25;;;;;26.72;100.00;101559.88;5037855;28;51294;-58
2022/08/29 06:29:28;;;;;;;;;27.00;19.50;;;;;26.80;100.00;101557.59;5037994;28;51482;-57
2022/08/29 06:32:13;;;;;;;;;21.75;16.00;;;;;26.93;100.00;101557.75;5038123;28;51192;-57
2022/08/29 06:34:58;;;;;;;;;18.75;14.75;;;;;27.03;100.00;101558.09;5037798;28;51364;-58
2022/08/29 06:37:42;;;;;;;;;22.75;18.75;;;;;27.18;100.00;101559.88;5040012;28;51174;-59
2022/08/29 06:40:27;;;;;;;;;22.00;17.75;;;;;27.33;100.00;101570.84;5041759;28;51431;-58
2022/08/29 06:43:11;;;;;;;;;24.00;18.75;;;;;27.42;100.00;101570.25;5041853;28;51156;-57
2022/08/29 06:45:55;;;;;;;;;23.75;18.75;;;;;27.49;100.00;101563.47;5041324;28;51088;-57
2022/08/29 06:48:40;;;;;;;;;24.25;16.50;;;;;27.59;100.00;101573.81;5040630;28;51556;-58
2022/08/29 06:51:25;;;;;;;;;28.50;16.50;;;;;27.74;100.00;101580.16;5041660;28;51174;-58
2022/08/29 06:54:12;;;;;;;;;22.00;17.50;;;;;28.15;100.00;101579.41;5042558;28;51546;-58
2022/08/29 06:56:58;;;;;;;;;31.25;21.00;;;;;28.46;100.00;101577.41;5041872;28;51196;-58
2022/08/29 06:59:43;;;;;;;;;19.50;19.50;;;;;28.65;100.00;101567.97;5041067;28;51111;-58
2022/08/29 07:02:27;;;;;;;;;27.50;21.75;;;;;28.73;100.00;101582.06;5042426;28;51147;-57
2022/08/29 07:05:12;;;;;;;;;39.75;30.00;;;;;28.75;100.00;101580.09;5042123;28;51505;-59
2022/08/29 07:07:56;;;;;;;;;48.25;37.75;;;;;28.76;100.00;101582.72;5041520;28;51158;-58
2022/08/29 07:10:44;;;;;;;;;33.75;27.25;;;;;28.76;100.00;101582.72;5042112;28;51056;-58
2022/08/29 07:13:28;;;;;;;;;39.75;29.25;;;;;28.77;100.00;101586.34;5041692;28;51133;-57
2022/08/29 07:16:15;;;;;;;;;39.00;30.50;;;;;28.94;100.00;101589.78;5041753;28;51146;-58
2022/08/29 07:19:01;;;;;;;;;39.50;30.75;;;;;29.47;100.00;101596.19;5041663;28;51093;-58
2022/08/29 07:21:47;;;;;;;;;35.50;29.75;;;;;29.76;100.00;101600.59;5042097;28;51571;-58
2022/08/29 07:24:33;;;;;;;;;34.50;26.50;;;;;29.74;100.00;101600.69;5035715;28;51479;-58
2022/08/29 07:27:17;;;;;;;;;41.50;33.00;;;;;29.61;100.00;101602.56;5040279;28;51281;-57
2022/08/29 07:30:05;;;;;;;;;38.00;31.00;;;;;29.47;100.00;101603.53;5041748;28;51161;-58
2022/08/29 07:32:49;;;;;;;;;28.75;22.25;;;;;29.49;100.00;101607.94;5041554;28;51160;-58
2022/08/29 07:35:34;;;;;;;;;28.00;23.25;;;;;30.12;100.00;101613.53;5041551;28;51017;-57
2022/08/29 07:38:18;;;;;;;;;27.25;20.00;;;;;30.75;100.00;101613.50;5041157;28;51186;-58
2022/08/29 07:41:05;;;;;;;;;25.50;22.00;;;;;31.44;100.00;101613.78;5034890;28;51198;-58
2022/08/29 07:43:50;;;;;;;;;27.50;22.00;;;;;32.09;100.00;101619.66;5041102;28;51092;-58
2022/08/29 07:46:34;;;;;;;;;24.00;21.25;;;;;32.60;100.00;101626.53;5041399;28;50997;-58
2022/08/29 07:49:19;;;;;;;;;23.50;21.25;;;;;32.46;100.00;101619.44;5040984;28;51151;-58
2022/08/29 07:52:03;;;;;;;;;23.00;19.00;;;;;32.44;100.00;101627.78;5041102;28;51071;-59
2022/08/29 07:54:48;;;;;;;;;24.00;19.25;;;;;32.68;100.00;101631.41;5040362;28;51431;-57
2022/08/29 07:57:32;;;;;;;;;22.00;17.00;;;;;32.81;100.00;101626.63;5041125;28;51107;-57
2022/08/29 08:00:17;;;;;;;;;21.00;14.50;;;;;32.91;100.00;101632.25;5041286;28;51035;-58
2022/08/29 08:03:02;;;;;;;;;15.75;13.00;;;;;32.98;100.00;101640.88;5040938;28;51076;-57
2022/08/29 08:05:47;;;;;;;;;18.50;15.75;;;;;33.05;100.00;101631.06;5041083;28;51086;-57
2022/08/29 08:08:31;;;;;;;;;17.25;14.25;;;;;33.07;100.00;101631.81;5034367;28;51225;-57
2022/08/29 08:11:16;;;;;;;;;20.00;18.50;;;;;33.12;100.00;101631.41;5041083;28;51042;-58
2022/08/29 08:14:01;;;;;;;;;20.75;17.50;;;;;33.17;100.00;101643.78;5039647;28;51428;-58
2022/08/29 08:16:46;;;;;;;;;27.25;20.00;;;;;33.13;100.00;101650.56;5040917;28;51143;-58
2022/08/29 08:19:31;;;;;;;;;22.25;19.25;;;;;32.98;100.00;101647.25;5040635;28;51513;-58
2022/08/29 08:22:15;;;;;;;;;21.00;17.00;;;;;32.89;100.00;101651.66;5040356;28;51495;-57
2022/08/29 08:24:59;;;;;;;;;15.25;13.50;;;;;32.96;100.00;101649.28;5041319;28;51136;-59
2022/08/29 08:27:44;;;;;;;;;19.50;15.75;;;;;33.12;100.00;101636.91;5040458;28;51259;-57
2022/08/29 08:30:28;;;;;;;;;14.75;11.50;;;;;33.15;100.00;101637.53;5039296;28;51175;-58
2022/08/29 08:33:13;;;;;;;;;21.25;13.75;;;;;33.13;100.00;101639.53;5039445;28;51203;-58
2022/08/29 08:35:57;;;;;;;;;16.00;11.75;;;;;33.18;100.00;101645.53;5040291;28;50985;-58
2022/08/29 08:38:42;;;;;;;;;16.75;14.00;;;;;33.21;100.00;101631.50;5039677;28;51380;-59
2022/08/29 08:41:29;;;;;;;;;15.50;12.50;;;;;33.33;100.00;101635.09;5040403;28;51093;-58
2022/08/29 08:44:23;;;;;;;;;15.50;9.75;;;;;33.35;100.00;101627.56;5032158;28;51299;-58
2022/08/29 08:47:11;;;;;;;;;14.75;11.25;;;;;33.31;100.00;101641.72;5032316;28;51120;-58
2022/08/29 08:50:00;;;;;;;;;15.75;12.00;;;;;33.32;100.00;101643.47;5040119;28;51125;-58
2022/08/29 08:52:58;;;;;;;;;15.25;11.00;;;;;33.29;100.00;101635.47;5039156;28;51404;-58
2022/08/29 08:55:53;;;;;;;;;16.00;13.75;;;;;33.44;100.00;101644.31;5038445;28;51109;-57
2022/08/29 08:58:55;;;;;;;;;22.00;20.00;;;;;33.50;100.00;101635.50;5039768;28;51072;-58
2022/08/29 09:01:44;;;;;;;;;13.50;12.00;;;;;33.57;100.00;101647.75;5037703;28;51014;-59
2022/08/29 09:05:06;;;;;;;;;16.00;11.00;;;;;33.61;100.00;101651.13;5039765;28;51137;-59
2022/08/29 09:08:20;;;;;;;;;19.50;15.50;;;;;33.56;100.00;101650.63;5034995;28;51163;-58
2022/08/29 09:11:11;;;;;;;;;16.00;12.00;;;;;33.50;100.00;101652.94;5030778;28;51428;-58
2022/08/29 09:14:07;;;;;;;;;14.25;11.00;;;;;33.28;100.00;101655.78;5038435;28;51233;-58
2022/08/29 09:16:54;;;;;;;;;18.00;14.50;;;;;33.06;100.00;101655.75;5039459;28;51165;-58
2022/08/29 09:19:39;;;;;;;;;14.50;13.00;;;;;32.95;100.00;101653.03;5038219;28;51166;-58
2022/08/29 09:22:29;;;;;;;;;22.25;16.25;;;;;32.90;100.00;101658.94;5038021;28;51151;-58
2022/08/29 09:25:14;;;;;;;;;21.25;16.50;;;;;32.74;100.00;101659.31;5039100;28;51215;-58
2022/08/29 09:27:59;;;;;;;;;16.00;14.50;;;;;32.66;100.00;101655.44;5039348;28;51072;-58
2022/08/29 09:31:15;;;;;;;;;13.25;10.75;;;;;32.69;100.00;101650.56;5039160;28;51646;-58
2022/08/29 09:34:08;;;;;;;;;14.50;13.25;;;;;32.72;100.00;101647.56;5036503;28;51226;-49
2022/08/29 09:36:53;;;;;;;;;18.75;14.25;;;;;32.81;100.00;101645.91;5039120;28;51864;-48
2022/08/29 09:39:38;;;;;;;;;16.25;15.25;;;;;32.97;100.00;101630.84;5037976;28;51078;-50
2022/08/29 09:42:23;;;;;;;;;18.50;13.00;;;;;33.08;100.00;101625.28;5039040;28;51144;-48
2022/08/29 09:45:25;;;;;;;;;19.50;15.25;;;;;33.13;100.00;101622.13;5038777;28;51055;-47
2022/08/29 09:48:16;;;;;;;;;12.00;11.25;;;;;33.12;100.00;101614.84;5035086;28;51227;-47
2022/08/29 09:51:23;;;;;;;;;14.00;13.50;;;;;32.95;100.00;101614.44;5038253;28;51129;-48
2022/08/29 09:54:21;;;;;;;;;14.00;11.50;;;;;32.83;100.00;101612.72;5038867;28;51108;-51
2022/08/29 09:57:21;;;;;;;;;15.50;14.25;;;;;32.72;100.00;101608.06;5038528;28;51186;-47
2022/08/29 10:00:15;;;;;;;;;13.25;13.00;;;;;32.54;100.00;101605.03;5037627;28;51101;-48
2022/08/29 10:03:01;;;;;;;;;17.75;11.50;;;;;32.53;100.00;101611.53;5037433;28;51080;-49
2022/08/29 10:05:49;;;;;;;;;15.25;14.25;;;;;32.36;100.00;101604.66;5037850;28;51193;-47
2022/08/29 10:08:36;;;;;;;;;18.25;9.50;;;;;32.35;100.00;101598.28;5036940;28;51191;-48
2022/08/29 10:11:27;;;;;;;;;18.25;16.75;;;;;32.38;100.00;101595.28;5038573;28;51506;-49
2022/08/29 10:14:16;;;;;;;;;17.25;13.00;;;;;32.41;100.00;101597.78;5040162;28;51531;-50
2022/08/29 10:21:09;;;;;;;;;21.25;14.75;;;;;32.41;100.00;101588.63;5041932;28;51230;-48
2022/08/29 10:24:13;;;;;;;;;19.50;16.50;;;;;32.38;100.00;101583.41;5042141;28;51120;-48
2022/08/29 10:27:21;;;;;;;;;17.00;12.50;;;;;32.39;100.00;101580.50;5041405;28;51246;-48
2022/08/29 10:30:10;;;;;;;;;14.50;13.50;;;;;32.32;100.00;101578.38;5041082;28;51151;-47
2022/08/29 10:33:30;;;;;;;;;12.50;9.00;;;;;32.20;100.00;101570.09;5039593;28;51206;-48
2022/08/29 10:36:36;;;;;;;;;16.00;14.25;;;;;32.08;100.00;101573.88;5015479;28;51270;-49
2022/08/29 10:39:45;;;;;;;;;12.75;12.75;;;;;31.97;100.00;101558.25;5039458;28;51187;-50
2022/08/29 10:42:31;;;;;;;;;10.00;9.75;;;;;31.93;100.00;101563.13;5039392;28;51428;-48
2022/08/29 10:45:34;;;;;;;;;14.25;12.25;;;;;31.90;100.00;101552.38;5039368;28;51127;-48
2022/08/29 10:48:24;;;;;;;;;18.00;13.75;;;;;31.85;100.00;101535.38;5040283;28;51147;-48
2022/08/29 10:51:57;;;;;;;;;17.25;12.25;;;;;31.80;100.00;101534.84;5039124;28;51541;-48
2022/08/29 10:55:25;;;;;;;;;14.50;13.00;;;;;31.70;100.00;101515.47;5042379;28;52136;-50
2022/08/29 10:58:28;;;;;;;;;16.50;13.25;;;;;31.58;100.00;101520.06;5043188;28;51457;-48
2022/08/29 11:01:15;;;;;;;;;13.00;12.00;;;;;31.57;100.00;101515.56;5042480;28;51084;-48
2022/08/29 11:04:16;;;;;;;;;15.75;13.75;;;;;31.46;100.00;101516.44;5042850;28;51144;-48
2022/08/29 11:07:14;;;;;;;;;15.25;11.75;;;;;31.34;100.00;101504.53;5041481;28;51448;-47
2022/08/29 11:10:19;;;;;;;;;13.00;10.75;;;;;31.32;100.00;101506.56;5042236;28;51335;-50
2022/08/29 11:13:12;;;;;;;;;20.75;13.25;;;;;31.36;100.00;101499.78;5041053;28;51107;-47
2022/08/29 11:16:11;;;;;;;;;15.75;12.75;;;;;31.50;100.00;101495.06;5042489;28;51260;-49
2022/08/29 11:19:11;;;;;;;;;19.25;13.25;;;;;31.59;100.00;101486.06;5040926;28;51527;-46
2022/08/29 11:22:02;;;;;;;;;18.75;15.75;;;;;31.73;100.00;101487.72;5041087;28;51226;-48
2022/08/29 11:24:56;;;;;;;;;15.50;15.50;;;;;31.81;100.00;101487.94;5041292;28;51371;-48
2022/08/29 11:28:07;;;;;;;;;14.75;11.50;;;;;31.89;100.00;101478.19;5040705;28;51080;-49
2022/08/29 11:31:20;;;;;;;;;15.00;13.25;;;;;31.79;100.00;101467.97;5042029;28;51189;-47
2022/08/29 11:34:22;;;;;;;;;15.75;12.50;;;;;31.77;100.00;101469.06;5035073;28;51108;-49
2022/08/29 11:37:16;;;;;;;;;15.50;13.50;;;;;31.73;100.00;101462.09;5041131;28;51421;-48
2022/08/29 11:40:48;;;;;;;;;14.25;11.75;;;;;31.69;100.00;101464.22;5041553;28;51308;-49
2022/08/29 11:43:39;;;;;;;;;17.75;11.25;;;;;31.63;100.00;101442.66;4990467;28;51454;-48
2022/08/29 11:46:46;;;;;;;;;15.75;11.50;;;;;31.59;100.00;101450.31;5040821;28;51781;-49
2022/08/29 11:49:34;;;;;;;;;16.50;11.75;;;;;31.53;100.00;101428.81;5039543;28;51443;-50
2022/08/29 11:52:24;;;;;;;;;18.75;15.00;;;;;31.50;100.00;101435.41;5036547;28;51198;-48
2022/08/29 11:55:23;;;;;;;;;16.50;13.25;;;;;31.49;100.00;101427.31;5040483;28;51540;-50
2022/08/29 11:58:14;;;;;;;;;13.50;12.75;;;;;31.49;100.00;101424.56;5040989;28;51210;-48
2022/08/29 12:00:58;;;;;;;;;16.75;13.00;;;;;31.49;100.00;101410.81;5036997;28;51508;-49
2022/08/29 12:03:44;;;;;;;;;10.50;9.50;;;;;31.47;100.00;101407.31;5038908;28;51402;-49
2022/08/29 12:06:51;;;;;;;;;16.75;15.25;;;;;31.42;100.00;101404.06;5040364;28;52935;-49
2022/08/29 12:09:55;;;;;;;;;15.75;11.75;;;;;31.35;100.00;101382.56;5035127;28;51141;-51
2022/08/29 12:12:44;;;;;;;;;13.00;12.00;;;;;31.33;100.00;101380.94;5035198;28;51222;-49
2022/08/29 12:15:29;;;;;;;;;13.25;13.00;;;;;31.38;100.00;101381.41;5039995;28;51166;-52
2022/08/29 12:18:19;;;;;;;;;15.00;11.75;;;;;31.38;100.00;101381.41;5040145;28;51228;-49
2022/08/29 12:21:30;;;;;;;;;12.00;11.25;;;;;31.29;100.00;101368.44;5039941;28;51121;-51
2022/08/29 12:24:31;;;;;;;;;13.00;12.50;;;;;31.31;100.00;101371.94;5038711;28;51224;-50
2022/08/29 12:27:24;;;;;;;;;15.50;10.00;;;;;31.43;100.00;101372.81;5039768;28;51534;-48
2022/08/29 12:30:12;;;;;;;;;17.00;14.25;;;;;31.51;100.00;101370.31;5034317;28;51421;-48
2022/08/29 12:33:08;;;;;;;;;16.75;12.25;;;;;31.61;100.00;101371.28;5033239;28;51208;-48
2022/08/29 12:36:00;;;;;;;;;11.25;11.25;;;;;31.72;100.00;101370.41;5038025;28;51590;-48
2022/08/29 12:39:02;;;;;;;;;13.00;11.50;;;;;31.90;100.00;101369.88;5040120;28;51114;-48
2022/08/29 12:42:02;;;;;;;;;14.25;11.25;;;;;32.07;100.00;101361.06;5038637;28;51239;-51
2022/08/29 12:45:01;;;;;;;;;20.00;13.50;;;;;32.13;100.00;101356.91;5040134;28;51167;-48
2022/08/29 12:48:07;;;;;;;;;11.75;11.25;;;;;32.21;100.00;101359.84;5039723;28;51109;-52